Time;durP1;ratioP1;P1;durP2;ratioP2;P2;SDS_P1;SDS_P2;PMS_P1;PMS_P2;Temp;Humidity;BMP_temperature;BMP_pressure;BME280_temperature;BME280_humidity;BME280_pressure;Samples;Min_cycle;Max_cycle;Signal;HPM_P1;HPM_P2
2024/03/23 00:02:18;;;;;;;;;;;9.00;99.90;;;;;;5023145;28;19932;-77
2024/03/23 00:04:45;;;;;;;;;;;8.90;99.90;;;;;;5032317;28;19917;-77
2024/03/23 00:07:11;;;;;;;;;;;8.90;99.90;;;;;;5074653;28;19932;-77
2024/03/23 00:09:37;;;;;;;;;;;8.90;99.90;;;;;;5028487;28;19953;-77
2024/03/23 00:12:03;;;;;;;;;;;8.90;99.90;;;;;;5017005;28;19927;-76
2024/03/23 00:14:29;;;;;;;;;;;8.90;99.90;;;;;;5052603;28;20369;-77
2024/03/23 00:16:56;;;;;;;;;;;8.80;99.90;;;;;;5049893;28;19917;-76
2024/03/23 00:19:23;;;;;;;;;;;8.90;99.90;;;;;;5016958;28;19964;-76
2024/03/23 00:21:49;;;;;;;;;;;8.90;99.90;;;;;;5073017;28;19913;-76
2024/03/23 00:24:16;;;;;;;;;;;8.80;99.90;;;;;;5038417;28;20040;-77
2024/03/23 00:26:43;;;;;;;;;;;8.80;99.90;;;;;;5046910;28;19925;-77
2024/03/23 00:29:09;;;;;;;;;;;8.80;99.90;;;;;;5064777;28;19914;-77
2024/03/23 00:31:36;;;;;;;;;;;8.80;99.90;;;;;;5032815;28;19975;-77
2024/03/23 00:34:02;;;;;;;;;;;8.80;99.90;;;;;;5035849;28;19917;-77
2024/03/23 00:36:29;;;;;;;;;;;8.80;99.90;;;;;;5034203;28;19928;-77
2024/03/23 00:38:55;;;;;;;;;;;8.70;99.90;;;;;;5061831;28;19944;-76
2024/03/23 00:41:21;;;;;;;;;;;8.70;99.90;;;;;;5060608;28;19925;-77
2024/03/23 00:43:47;;;;;;;;;;;8.60;99.90;;;;;;5058305;28;20355;-77
2024/03/23 00:46:13;;;;;;;;;;;8.60;99.90;;;;;;5050051;28;20015;-77
2024/03/23 00:48:39;;;;;;;;;;;8.60;99.90;;;;;;5031802;28;20257;-76
2024/03/23 00:51:05;;;;;;;;;;;8.50;99.90;;;;;;5034173;28;19913;-76
2024/03/23 00:53:33;;;;;;;;;;;8.50;99.90;;;;;;5036622;28;19913;-77
2024/03/23 00:55:59;;;;;;;;;;;8.50;99.90;;;;;;5032961;28;19923;-77
2024/03/23 00:58:25;;;;;;;;;;;8.50;99.90;;;;;;5033020;28;19913;-77
2024/03/23 01:00:50;;;;;;;;;;;8.50;99.90;;;;;;5023847;28;19925;-76
2024/03/23 01:03:16;;;;;;;;;;;8.50;99.90;;;;;;5045206;28;20254;-76
2024/03/23 01:05:41;;;;;;;;;;;8.40;99.90;;;;;;5033774;28;19921;-77
2024/03/23 01:08:07;;;;;;;;;;;8.40;99.90;;;;;;5016359;28;19928;-77
2024/03/23 01:10:34;;;;;;;;;;;8.40;99.90;;;;;;5016346;28;20131;-77
2024/03/23 01:13:00;;;;;;;;;;;8.40;99.90;;;;;;4999890;28;19921;-77
2024/03/23 01:15:26;;;;;;;;;;;8.40;99.90;;;;;;5054075;28;20265;-76
2024/03/23 01:17:52;;;;;;;;;;;8.40;99.90;;;;;;5076549;28;19923;-77
2024/03/23 01:20:18;;;;;;;;;;;8.40;99.90;;;;;;5056948;28;19925;-77
2024/03/23 01:22:43;;;;;;;;;;;8.50;99.90;;;;;;5033478;28;20364;-77
2024/03/23 01:25:10;;;;;;;;;;;8.40;99.90;;;;;;5015559;28;19917;-76
2024/03/23 01:27:36;;;;;;;;;;;8.40;99.90;;;;;;5035646;28;20515;-76
2024/03/23 01:30:01;;;;;;;;;;;8.40;99.90;;;;;;5033690;28;19923;-76
2024/03/23 01:32:27;;;;;;;;;;;8.30;99.90;;;;;;4999166;28;19960;-76
2024/03/23 01:34:53;;;;;;;;;;;8.30;99.90;;;;;;5032770;28;19956;-76
2024/03/23 01:37:18;;;;;;;;;;;8.30;99.90;;;;;;5078147;28;20253;-76
2024/03/23 01:39:44;;;;;;;;;;;8.30;99.90;;;;;;5032557;28;19917;-76
2024/03/23 01:42:10;;;;;;;;;;;8.30;99.90;;;;;;5039200;28;19931;-76
2024/03/23 01:44:36;;;;;;;;;;;8.30;99.90;;;;;;5029001;28;19917;-76
2024/03/23 01:47:01;;;;;;;;;;;8.20;99.90;;;;;;5031753;28;20290;-76
2024/03/23 01:49:27;;;;;;;;;;;8.30;99.90;;;;;;5012632;28;20526;-76
2024/03/23 01:51:53;;;;;;;;;;;8.30;99.90;;;;;;5032415;28;19927;-76
2024/03/23 01:54:18;;;;;;;;;;;8.20;99.90;;;;;;5032178;28;19917;-76
2024/03/23 01:56:44;;;;;;;;;;;8.20;99.90;;;;;;5049037;28;20249;-77
2024/03/23 01:59:10;;;;;;;;;;;8.20;99.90;;;;;;5051435;28;19956;-77
2024/03/23 02:01:36;;;;;;;;;;;8.10;99.90;;;;;;5029422;28;20015;-77
2024/03/23 02:04:01;;;;;;;;;;;8.20;99.90;;;;;;5040390;28;19921;-77
2024/03/23 02:06:27;;;;;;;;;;;8.10;99.90;;;;;;5033369;28;19948;-76
2024/03/23 02:08:53;;;;;;;;;;;8.10;99.90;;;;;;5032037;28;19917;-76
2024/03/23 02:11:19;;;;;;;;;;;8.10;99.90;;;;;;5015404;28;19921;-76
2024/03/23 02:13:44;;;;;;;;;;;8.10;99.90;;;;;;5011645;28;20000;-76
2024/03/23 02:16:10;;;;;;;;;;;8.10;99.90;;;;;;5042164;28;19922;-76
2024/03/23 02:18:36;;;;;;;;;;;8.10;99.90;;;;;;5030080;28;19917;-77
2024/03/23 02:21:01;;;;;;;;;;;8.00;99.90;;;;;;5010339;28;20425;-77
2024/03/23 02:23:27;;;;;;;;;;;8.00;99.90;;;;;;5032428;28;19963;-77
2024/03/23 02:25:54;;;;;;;;;;;7.90;99.90;;;;;;5029306;28;19917;-77
2024/03/23 02:28:20;;;;;;;;;;;7.90;99.90;;;;;;5036731;28;19921;-77
2024/03/23 02:30:46;;;;;;;;;;;7.80;99.90;;;;;;5034113;28;19918;-77
2024/03/23 02:33:11;;;;;;;;;;;7.90;99.90;;;;;;5019800;28;20015;-77
2024/03/23 02:35:37;;;;;;;;;;;7.90;99.90;;;;;;5036087;28;20004;-76
2024/03/23 02:38:02;;;;;;;;;;;7.90;99.90;;;;;;5016653;28;20012;-76
2024/03/23 02:40:28;;;;;;;;;;;7.90;99.90;;;;;;5035684;28;19963;-77
2024/03/23 02:42:54;;;;;;;;;;;7.90;99.90;;;;;;5052806;28;20009;-77
2024/03/23 02:45:19;;;;;;;;;;;7.90;99.90;;;;;;5038373;28;19996;-77
2024/03/23 02:47:45;;;;;;;;;;;7.90;99.90;;;;;;5046562;28;19924;-76
2024/03/23 02:50:12;;;;;;;;;;;7.90;99.90;;;;;;5035960;28;20009;-77
2024/03/23 02:52:37;;;;;;;;;;;7.80;99.90;;;;;;5042020;28;20486;-76
2024/03/23 02:55:03;;;;;;;;;;;7.80;99.90;;;;;;5008151;28;19917;-76
2024/03/23 02:57:29;;;;;;;;;;;7.80;99.90;;;;;;5048971;28;19924;-77
2024/03/23 02:59:54;;;;;;;;;;;7.80;99.90;;;;;;5023056;28;19913;-76
2024/03/23 03:02:20;;;;;;;;;;;7.70;99.90;;;;;;5028996;28;19983;-77
2024/03/23 03:04:46;;;;;;;;;;;7.70;99.90;;;;;;5036106;28;19944;-76
2024/03/23 03:07:11;;;;;;;;;;;7.80;99.90;;;;;;5019041;28;19921;-76
2024/03/23 03:09:38;;;;;;;;;;;7.70;99.90;;;;;;5074777;28;19913;-76
2024/03/23 03:12:05;;;;;;;;;;;7.70;99.90;;;;;;5049440;28;19956;-76
2024/03/23 03:14:30;;;;;;;;;;;7.70;99.90;;;;;;5037296;28;19917;-77
2024/03/23 03:16:57;;;;;;;;;;;7.70;99.90;;;;;;5036982;28;20376;-76
2024/03/23 03:19:23;;;;;;;;;;;7.70;99.90;;;;;;5039939;28;19924;-77
2024/03/23 03:21:49;;;;;;;;;;;7.70;99.90;;;;;;5052816;28;19913;-76
2024/03/23 03:24:15;;;;;;;;;;;7.70;99.90;;;;;;5022995;28;19920;-77
2024/03/23 03:26:40;;;;;;;;;;;7.70;99.90;;;;;;5069890;28;19921;-76
2024/03/23 03:29:06;;;;;;;;;;;7.60;99.90;;;;;;5075890;28;19970;-77
2024/03/23 03:31:32;;;;;;;;;;;7.60;99.90;;;;;;5019919;28;19917;-76
2024/03/23 03:33:58;;;;;;;;;;;7.60;99.90;;;;;;5018169;28;19925;-77
2024/03/23 03:36:24;;;;;;;;;;;7.60;99.90;;;;;;5047985;28;20016;-76
2024/03/23 03:38:49;;;;;;;;;;;7.60;99.90;;;;;;5054671;28;19924;-76
2024/03/23 03:41:15;;;;;;;;;;;7.60;99.90;;;;;;5073876;28;19932;-76
2024/03/23 03:43:41;;;;;;;;;;;7.60;99.90;;;;;;5059041;28;19921;-76
2024/03/23 03:46:08;;;;;;;;;;;7.50;99.90;;;;;;5033056;28;19913;-76
2024/03/23 03:48:34;;;;;;;;;;;7.60;99.90;;;;;;5033047;28;19921;-77
2024/03/23 03:50:59;;;;;;;;;;;7.50;99.90;;;;;;5033209;28;19918;-76
2024/03/23 03:53:26;;;;;;;;;;;7.50;99.90;;;;;;5040019;28;19923;-77
2024/03/23 03:55:51;;;;;;;;;;;7.50;99.90;;;;;;5038445;28;19917;-77
2024/03/23 03:58:17;;;;;;;;;;;7.40;99.90;;;;;;5039689;28;19919;-77
2024/03/23 04:00:43;;;;;;;;;;;7.40;99.90;;;;;;5053163;28;19927;-76
2024/03/23 04:03:08;;;;;;;;;;;7.40;99.90;;;;;;5005163;28;19921;-76
2024/03/23 04:05:34;;;;;;;;;;;7.30;99.90;;;;;;5037580;28;20587;-77
2024/03/23 04:08:00;;;;;;;;;;;7.30;99.90;;;;;;5036296;28;19929;-77
2024/03/23 04:10:26;;;;;;;;;;;7.40;99.90;;;;;;5031538;28;20266;-77
2024/03/23 04:12:52;;;;;;;;;;;7.40;99.90;;;;;;5044372;28;20350;-77
2024/03/23 04:15:19;;;;;;;;;;;7.40;99.90;;;;;;5033889;28;19913;-76
2024/03/23 04:17:44;;;;;;;;;;;7.40;99.90;;;;;;5035951;28;19913;-77
2024/03/23 04:20:11;;;;;;;;;;;7.40;99.90;;;;;;5024960;28;20067;-76
2024/03/23 04:22:37;;;;;;;;;;;7.50;99.90;;;;;;5005792;28;19913;-77
2024/03/23 04:25:06;;;;;;;;;;;7.50;99.90;;;;;;5051952;28;20598;-77
2024/03/23 04:27:32;;;;;;;;;;;7.50;99.90;;;;;;5050409;28;20371;-77
2024/03/23 04:29:58;;;;;;;;;;;7.50;99.90;;;;;;5053516;28;19920;-77
2024/03/23 04:32:24;;;;;;;;;;;7.50;99.90;;;;;;5048407;28;20008;-76
2024/03/23 04:34:50;;;;;;;;;;;7.50;99.90;;;;;;5000845;28;20603;-77
2024/03/23 04:37:16;;;;;;;;;;;7.50;99.90;;;;;;5034604;28;19960;-77
2024/03/23 04:39:42;;;;;;;;;;;7.50;99.90;;;;;;5030443;28;19917;-77
2024/03/23 04:42:07;;;;;;;;;;;7.50;99.90;;;;;;5050831;28;20390;-77
2024/03/23 04:44:33;;;;;;;;;;;7.50;99.90;;;;;;5019935;28;20036;-77
2024/03/23 04:47:00;;;;;;;;;;;7.50;99.90;;;;;;5046510;28;19918;-77
2024/03/23 04:49:26;;;;;;;;;;;7.40;99.90;;;;;;5043551;28;19913;-77
2024/03/23 04:51:52;;;;;;;;;;;7.40;99.90;;;;;;5034390;28;20554;-77
2024/03/23 04:54:17;;;;;;;;;;;7.40;99.90;;;;;;5029434;28;19966;-77
2024/03/23 04:56:43;;;;;;;;;;;7.30;99.90;;;;;;5017784;28;19975;-77
2024/03/23 04:59:08;;;;;;;;;;;7.40;99.90;;;;;;5017629;28;20322;-77
2024/03/23 05:01:34;;;;;;;;;;;7.40;99.90;;;;;;5016343;28;19956;-77
2024/03/23 05:04:01;;;;;;;;;;;7.30;99.90;;;;;;5042129;28;19921;-77
2024/03/23 05:06:27;;;;;;;;;;;7.30;99.90;;;;;;5070193;28;19918;-76
2024/03/23 05:08:52;;;;;;;;;;;7.30;99.90;;;;;;5035921;28;19913;-77
2024/03/23 05:11:18;;;;;;;;;;;7.30;99.90;;;;;;5051092;28;20345;-77
2024/03/23 05:13:43;;;;;;;;;;;7.30;99.90;;;;;;5034792;28;19917;-77
2024/03/23 05:16:09;;;;;;;;;;;7.30;99.90;;;;;;5052405;28;19913;-77
2024/03/23 05:18:35;;;;;;;;;;;7.30;99.90;;;;;;5017655;28;20340;-77
2024/03/23 05:21:00;;;;;;;;;;;7.30;99.90;;;;;;5033791;28;19921;-77
2024/03/23 05:23:26;;;;;;;;;;;7.30;99.90;;;;;;5017208;28;19926;-77
2024/03/23 05:25:52;;;;;;;;;;;7.30;99.90;;;;;;5030281;28;19921;-77
2024/03/23 05:28:18;;;;;;;;;;;7.30;99.90;;;;;;5030773;28;19918;-77
2024/03/23 05:30:43;;;;;;;;;;;7.30;99.90;;;;;;5051558;28;20639;-76
2024/03/23 05:33:09;;;;;;;;;;;7.30;99.90;;;;;;5056858;28;20015;-77
2024/03/23 05:35:35;;;;;;;;;;;7.20;99.90;;;;;;5069970;28;20014;-76
2024/03/23 05:38:00;;;;;;;;;;;7.20;99.90;;;;;;5028554;28;19917;-76
2024/03/23 05:40:26;;;;;;;;;;;7.10;99.90;;;;;;5059241;28;20311;-77
2024/03/23 05:42:58;;;;;;;;;;;7.20;99.90;;;;;;5020186;28;20031;-76
2024/03/23 05:45:23;;;;;;;;;;;7.20;99.90;;;;;;5021194;28;20269;-76
2024/03/23 05:47:49;;;;;;;;;;;7.30;99.90;;;;;;5017518;28;19917;-77
2024/03/23 05:50:17;;;;;;;;;;;7.30;99.90;;;;;;5017118;28;19932;-77
2024/03/23 05:52:43;;;;;;;;;;;7.20;99.90;;;;;;5051645;28;19913;-77
2024/03/23 05:55:09;;;;;;;;;;;7.20;99.90;;;;;;5033544;28;19974;-76
2024/03/23 05:57:34;;;;;;;;;;;7.10;99.90;;;;;;5050034;28;19963;-75
2024/03/23 06:00:00;;;;;;;;;;;7.20;99.90;;;;;;5040356;28;19917;-76
2024/03/23 06:02:26;;;;;;;;;;;7.20;99.90;;;;;;5027757;28;19921;-76
2024/03/23 06:04:51;;;;;;;;;;;7.20;99.90;;;;;;5032898;28;19917;-76
2024/03/23 06:07:17;;;;;;;;;;;7.20;99.90;;;;;;5052736;28;19984;-75
2024/03/23 06:09:43;;;;;;;;;;;7.10;99.90;;;;;;5063213;28;19957;-76
2024/03/23 06:12:10;;;;;;;;;;;7.10;99.90;;;;;;5037157;28;19984;-76
2024/03/23 06:14:35;;;;;;;;;;;7.10;99.90;;;;;;5024696;28;19918;-76
2024/03/23 06:17:01;;;;;;;;;;;7.10;99.90;;;;;;5053373;28;19927;-76
2024/03/23 06:19:27;;;;;;;;;;;7.10;99.90;;;;;;5013140;28;20301;-76
2024/03/23 06:21:53;;;;;;;;;;;7.20;99.90;;;;;;5039420;28;19971;-76
2024/03/23 06:24:20;;;;;;;;;;;6.90;99.90;;;;;;5066529;28;19913;-76
2024/03/23 06:26:46;;;;;;;;;;;6.90;99.90;;;;;;5032880;28;20695;-76
2024/03/23 06:29:11;;;;;;;;;;;6.80;99.90;;;;;;5036372;28;20025;-76
2024/03/23 06:31:37;;;;;;;;;;;6.90;99.90;;;;;;5043753;28;19921;-76
2024/03/23 06:34:04;;;;;;;;;;;6.90;99.90;;;;;;5033001;28;19924;-76
2024/03/23 06:36:30;;;;;;;;;;;6.80;99.90;;;;;;5042277;28;19924;-76
2024/03/23 06:38:56;;;;;;;;;;;6.80;99.90;;;;;;5015801;28;20514;-75
2024/03/23 06:41:23;;;;;;;;;;;6.80;99.90;;;;;;4998659;28;19917;-76
2024/03/23 06:43:48;;;;;;;;;;;6.60;99.90;;;;;;5025044;28;19917;-76
2024/03/23 06:46:14;;;;;;;;;;;6.70;99.90;;;;;;5040117;28;19921;-76
2024/03/23 06:48:40;;;;;;;;;;;6.70;99.90;;;;;;5031339;28;19913;-76
2024/03/23 06:51:06;;;;;;;;;;;6.60;99.90;;;;;;5044504;28;19943;-76
2024/03/23 06:53:32;;;;;;;;;;;6.60;99.90;;;;;;5035544;28;20356;-75
2024/03/23 06:55:58;;;;;;;;;;;6.70;99.90;;;;;;5038986;28;19921;-76
2024/03/23 06:58:24;;;;;;;;;;;6.70;99.90;;;;;;5034437;28;19917;-76
2024/03/23 07:00:49;;;;;;;;;;;6.70;99.90;;;;;;5030577;28;19940;-75
2024/03/23 07:03:16;;;;;;;;;;;6.70;99.90;;;;;;5010510;28;19965;-75
2024/03/23 07:05:42;;;;;;;;;;;6.70;99.90;;;;;;5066617;28;19927;-75
2024/03/23 07:08:08;;;;;;;;;;;6.70;99.90;;;;;;5037989;28;19952;-75
2024/03/23 07:10:33;;;;;;;;;;;6.70;99.90;;;;;;5031172;28;20003;-75
2024/03/23 07:12:59;;;;;;;;;;;6.80;99.90;;;;;;5049729;28;19917;-75
2024/03/23 07:15:26;;;;;;;;;;;6.80;99.90;;;;;;5045425;28;19956;-75
2024/03/23 07:17:52;;;;;;;;;;;6.80;99.90;;;;;;5050175;28;19967;-76
2024/03/23 07:20:19;;;;;;;;;;;6.80;99.90;;;;;;5037006;28;19917;-75
2024/03/23 07:22:46;;;;;;;;;;;6.80;99.90;;;;;;5031165;28;19917;-75
2024/03/23 07:25:11;;;;;;;;;;;6.80;99.90;;;;;;5036944;28;19959;-76
2024/03/23 07:27:37;;;;;;;;;;;6.70;99.90;;;;;;5069552;28;19961;-74
2024/03/23 07:30:02;;;;;;;;;;;6.70;99.90;;;;;;5036948;28;19971;-74
2024/03/23 07:32:28;;;;;;;;;;;6.70;99.90;;;;;;5042165;28;20004;-75
2024/03/23 07:34:54;;;;;;;;;;;6.70;99.90;;;;;;5037484;28;19956;-76
2024/03/23 07:37:19;;;;;;;;;;;6.70;99.90;;;;;;5020039;28;19913;-76
2024/03/23 07:39:45;;;;;;;;;;;6.70;99.90;;;;;;5003235;28;19913;-76
2024/03/23 07:42:11;;;;;;;;;;;6.80;99.90;;;;;;5053183;28;19982;-75
2024/03/23 07:44:37;;;;;;;;;;;6.80;99.90;;;;;;5078940;28;19917;-75
2024/03/23 07:47:03;;;;;;;;;;;6.80;99.90;;;;;;5048793;28;19925;-75
2024/03/23 07:49:28;;;;;;;;;;;6.80;99.90;;;;;;5036202;28;20289;-75
2024/03/23 07:51:54;;;;;;;;;;;6.80;99.90;;;;;;5049695;28;19912;-75
2024/03/23 07:54:19;;;;;;;;;;;6.80;99.90;;;;;;5043423;28;19966;-75
2024/03/23 07:56:46;;;;;;;;;;;6.80;99.90;;;;;;5038310;28;20227;-76
2024/03/23 07:59:13;;;;;;;;;;;6.80;99.90;;;;;;5005403;28;19924;-76
2024/03/23 08:01:39;;;;;;;;;;;6.80;99.90;;;;;;5042596;28;19944;-76
2024/03/23 08:04:06;;;;;;;;;;;6.80;99.90;;;;;;5018786;28;19921;-76
2024/03/23 08:06:31;;;;;;;;;;;6.80;99.90;;;;;;5004027;28;19921;-76
2024/03/23 08:09:00;;;;;;;;;;;6.80;99.90;;;;;;5048894;28;19920;-76
2024/03/23 08:11:26;;;;;;;;;;;6.60;99.90;;;;;;5035936;28;19979;-76
2024/03/23 08:13:52;;;;;;;;;;;6.60;99.90;;;;;;5027133;28;19913;-77
2024/03/23 08:16:17;;;;;;;;;;;6.50;99.90;;;;;;5036346;28;19936;-77
2024/03/23 08:18:43;;;;;;;;;;;6.50;99.90;;;;;;5043749;28;19920;-76
2024/03/23 08:21:09;;;;;;;;;;;6.50;99.90;;;;;;5086242;28;19916;-76
2024/03/23 08:23:38;;;;;;;;;;;6.50;99.90;;;;;;5085419;28;19917;-76
2024/03/23 08:26:04;;;;;;;;;;;6.50;99.90;;;;;;5086298;28;19934;-76
2024/03/23 08:28:30;;;;;;;;;;;6.50;99.90;;;;;;5053974;28;19925;-76
2024/03/23 08:30:56;;;;;;;;;;;6.50;99.90;;;;;;5057866;28;19932;-76
2024/03/23 08:33:22;;;;;;;;;;;6.60;99.90;;;;;;5062619;28;19913;-76
2024/03/23 08:35:54;;;;;;;;;;;6.50;99.90;;;;;;5015165;28;19921;-76
2024/03/23 08:38:20;;;;;;;;;;;6.50;99.90;;;;;;5033764;28;19916;-75
2024/03/23 08:40:46;;;;;;;;;;;6.60;99.90;;;;;;5054935;28;19917;-75
2024/03/23 08:43:11;;;;;;;;;;;6.80;99.90;;;;;;5038851;28;20562;-76
2024/03/23 08:45:37;;;;;;;;;;;6.90;99.90;;;;;;5085653;28;19913;-77
2024/03/23 08:48:05;;;;;;;;;;;7.20;99.90;;;;;;5033590;28;19929;-77
2024/03/23 08:50:31;;;;;;;;;;;7.20;99.90;;;;;;5052304;28;19921;-76
2024/03/23 08:52:56;;;;;;;;;;;7.40;99.90;;;;;;5012846;28;19971;-76
2024/03/23 08:55:22;;;;;;;;;;;7.50;99.90;;;;;;5036176;28;19928;-76
2024/03/23 08:57:49;;;;;;;;;;;7.40;99.90;;;;;;5039964;28;19921;-76
2024/03/23 09:00:15;;;;;;;;;;;7.40;99.90;;;;;;5035512;28;19917;-76
2024/03/23 09:02:40;;;;;;;;;;;7.30;99.90;;;;;;5049872;28;20002;-76
2024/03/23 09:05:06;;;;;;;;;;;7.30;99.90;;;;;;5032249;28;19925;-76
2024/03/23 09:07:32;;;;;;;;;;;7.20;99.90;;;;;;5054307;28;19928;-76
2024/03/23 09:09:57;;;;;;;;;;;7.30;99.90;;;;;;5049095;28;19917;-76
2024/03/23 09:12:23;;;;;;;;;;;7.30;99.90;;;;;;5035600;28;19913;-76
2024/03/23 09:14:49;;;;;;;;;;;7.30;99.90;;;;;;5034202;28;19960;-76
2024/03/23 09:17:15;;;;;;;;;;;7.30;99.90;;;;;;5034903;28;19944;-76
2024/03/23 09:19:41;;;;;;;;;;;7.20;99.90;;;;;;5033401;28;19960;-76
2024/03/23 09:22:06;;;;;;;;;;;7.20;99.90;;;;;;5066685;28;20330;-76
2024/03/23 09:24:32;;;;;;;;;;;7.30;99.90;;;;;;5046572;28;19943;-76
2024/03/23 09:26:57;;;;;;;;;;;7.20;99.90;;;;;;5014618;28;19951;-76
2024/03/23 09:29:23;;;;;;;;;;;7.00;99.90;;;;;;5030990;28;19917;-76
2024/03/23 09:31:49;;;;;;;;;;;6.90;99.90;;;;;;5031302;28;19975;-76
2024/03/23 09:34:15;;;;;;;;;;;6.80;99.90;;;;;;5027190;28;19921;-76
2024/03/23 09:36:41;;;;;;;;;;;6.90;99.90;;;;;;5066965;28;19921;-76
2024/03/23 09:39:07;;;;;;;;;;;6.80;99.90;;;;;;5044036;28;19921;-76
2024/03/23 09:41:33;;;;;;;;;;;6.80;99.90;;;;;;5006143;28;20455;-76
2024/03/23 09:43:59;;;;;;;;;;;6.80;99.90;;;;;;5045228;28;19917;-76
2024/03/23 09:46:24;;;;;;;;;;;6.90;99.90;;;;;;5036592;28;19917;-76
2024/03/23 09:48:51;;;;;;;;;;;6.90;99.90;;;;;;5065988;28;19916;-76
2024/03/23 09:51:17;;;;;;;;;;;7.00;99.90;;;;;;5032600;28;20238;-76
2024/03/23 09:53:43;;;;;;;;;;;7.00;99.90;;;;;;5031003;28;19917;-75
2024/03/23 09:56:08;;;;;;;;;;;7.00;99.90;;;;;;5033177;28;19917;-76
2024/03/23 09:58:34;;;;;;;;;;;7.10;99.90;;;;;;5025840;28;19917;-77
2024/03/23 10:01:00;;;;;;;;;;;7.10;99.90;;;;;;5033974;28;20026;-76
2024/03/23 10:03:25;;;;;;;;;;;7.20;99.90;;;;;;5060613;28;19925;-76
2024/03/23 10:06:02;;;;;;;;;;;7.30;99.90;;;;;;5031865;28;19929;-76
2024/03/23 10:08:27;;;;;;;;;;;7.30;99.90;;;;;;5035143;28;20326;-76
2024/03/23 10:10:53;;;;;;;;;;;7.40;99.90;;;;;;5033013;28;19966;-77
2024/03/23 10:13:29;;;;;;;;;;;7.40;99.90;;;;;;5031309;28;19958;-76
2024/03/23 10:15:56;;;;;;;;;;;7.50;99.90;;;;;;5001682;28;19913;-76
2024/03/23 10:18:24;;;;;;;;;;;7.60;99.90;;;;;;5025028;28;20195;-76
2024/03/23 10:21:06;;;;;;;;;;;7.70;99.90;;;;;;5053795;28;19917;-76
2024/03/23 10:23:35;;;;;;;;;;;7.70;99.90;;;;;;5031514;28;20465;-76
2024/03/23 10:26:21;;;;;;;;;;;8.00;99.90;;;;;;5000213;28;19927;-76
2024/03/23 10:28:53;;;;;;;;;;;8.30;99.90;;;;;;5049953;28;19917;-76
2024/03/23 10:31:19;;;;;;;;;;;8.30;99.90;;;;;;5036652;28;19927;-75
2024/03/23 10:33:45;;;;;;;;;;;8.00;99.90;;;;;;5032535;28;19913;-76
2024/03/23 10:36:11;;;;;;;;;;;7.90;99.90;;;;;;5053327;28;20405;-76
2024/03/23 10:38:37;;;;;;;;;;;8.00;99.90;;;;;;5020445;28;19944;-76
2024/03/23 10:41:02;;;;;;;;;;;8.10;99.90;;;;;;5031564;28;19914;-76
2024/03/23 10:43:28;;;;;;;;;;;8.20;99.90;;;;;;5015944;28;19920;-76
2024/03/23 10:45:54;;;;;;;;;;;8.30;99.90;;;;;;5055583;28;20280;-76
2024/03/23 10:48:21;;;;;;;;;;;8.20;99.90;;;;;;5034199;28;19921;-76
2024/03/23 10:50:46;;;;;;;;;;;8.40;99.90;;;;;;5042434;28;20280;-76
2024/03/23 10:53:12;;;;;;;;;;;8.60;99.90;;;;;;5050956;28;19927;-76
2024/03/23 10:55:38;;;;;;;;;;;8.70;99.90;;;;;;5029567;28;20112;-76
2024/03/23 10:58:03;;;;;;;;;;;8.50;99.90;;;;;;5047604;28;19917;-75
2024/03/23 11:00:29;;;;;;;;;;;8.10;99.90;;;;;;5001474;28;19983;-76
2024/03/23 11:02:55;;;;;;;;;;;7.60;99.90;;;;;;5034718;28;19925;-76
2024/03/23 11:05:26;;;;;;;;;;;7.50;99.90;;;;;;5013156;28;20257;-76
2024/03/23 11:07:52;;;;;;;;;;;7.50;99.90;;;;;;5068882;28;20275;-76
2024/03/23 11:10:25;;;;;;;;;;;7.50;99.90;;;;;;5002863;28;19921;-76
2024/03/23 11:12:50;;;;;;;;;;;7.70;99.90;;;;;;5019468;28;19984;-76
2024/03/23 11:15:16;;;;;;;;;;;7.90;99.90;;;;;;5054775;28;20379;-76
2024/03/23 11:17:42;;;;;;;;;;;8.30;99.90;;;;;;5061907;28;19917;-76
2024/03/23 11:20:09;;;;;;;;;;;8.60;99.90;;;;;;5014867;28;20066;-76
2024/03/23 11:22:41;;;;;;;;;;;8.90;99.90;;;;;;5035150;28;19963;-76
2024/03/23 11:25:16;;;;;;;;;;;9.00;99.90;;;;;;5034837;28;19927;-75
2024/03/23 11:27:42;;;;;;;;;;;9.10;99.90;;;;;;5058068;28;20376;-76
2024/03/23 11:30:11;;;;;;;;;;;9.30;99.90;;;;;;5015652;28;19917;-76
2024/03/23 11:32:36;;;;;;;;;;;9.50;99.90;;;;;;5051090;28;19921;-76
2024/03/23 11:35:02;;;;;;;;;;;9.60;99.90;;;;;;5067362;28;19947;-76
2024/03/23 11:37:28;;;;;;;;;;;9.70;99.90;;;;;;5038274;28;19917;-78
2024/03/23 11:39:54;;;;;;;;;;;9.80;99.90;;;;;;4998393;28;19982;-78
2024/03/23 11:42:21;;;;;;;;;;;9.90;99.90;;;;;;5004627;28;19917;-77
2024/03/23 11:44:47;;;;;;;;;;;10.00;99.90;;;;;;5069900;28;20367;-78
2024/03/23 11:47:13;;;;;;;;;;;10.20;99.90;;;;;;5052608;28;19921;-78
2024/03/23 11:49:40;;;;;;;;;;;10.20;99.90;;;;;;5011269;28;19943;-78
2024/03/23 11:52:06;;;;;;;;;;;10.20;99.90;;;;;;5058310;28;20559;-77
2024/03/23 11:54:32;;;;;;;;;;;10.10;99.90;;;;;;5041677;28;20030;-78
2024/03/23 11:56:58;;;;;;;;;;;9.80;99.90;;;;;;5057444;28;20348;-77
2024/03/23 11:59:50;;;;;;;;;;;9.50;99.90;;;;;;5037718;28;19927;-78
2024/03/23 12:02:15;;;;;;;;;;;9.10;99.90;;;;;;5021070;28;19925;-77
2024/03/23 12:04:41;;;;;;;;;;;8.60;99.90;;;;;;5036955;28;20289;-77
2024/03/23 12:07:14;;;;;;;;;;;8.40;99.90;;;;;;5063629;28;19920;-77
2024/03/23 12:09:40;;;;;;;;;;;8.20;99.90;;;;;;5059568;28;19921;-77
2024/03/23 12:12:16;;;;;;;;;;;7.90;99.90;;;;;;5021777;28;19996;-77
2024/03/23 12:14:42;;;;;;;;;;;8.10;99.90;;;;;;5054702;28;19955;-77
2024/03/23 12:17:11;;;;;;;;;;;8.30;99.90;;;;;;5055471;28;20325;-76
2024/03/23 12:19:37;;;;;;;;;;;8.60;99.90;;;;;;5047685;28;19917;-76
2024/03/23 12:22:03;;;;;;;;;;;8.50;99.90;;;;;;5030456;28;20253;-77
2024/03/23 12:24:29;;;;;;;;;;;8.20;99.90;;;;;;5055242;28;19913;-77
2024/03/23 12:26:55;;;;;;;;;;;8.20;99.90;;;;;;5064566;28;20334;-77
2024/03/23 12:29:20;;;;;;;;;;;8.00;99.90;;;;;;5060007;28;20012;-77
2024/03/23 12:31:46;;;;;;;;;;;7.90;99.90;;;;;;5033029;28;19913;-76
2024/03/23 12:34:12;;;;;;;;;;;7.80;99.90;;;;;;5033479;28;19971;-77
2024/03/23 12:36:37;;;;;;;;;;;7.70;99.90;;;;;;5054666;28;20349;-77
2024/03/23 12:39:04;;;;;;;;;;;7.50;99.90;;;;;;5038594;28;19924;-78
2024/03/23 12:41:30;;;;;;;;;;;7.50;99.90;;;;;;5026099;28;19917;-76
2024/03/23 12:43:56;;;;;;;;;;;7.60;99.90;;;;;;5055793;28;19974;-76
2024/03/23 12:46:23;;;;;;;;;;;7.80;99.90;;;;;;5028969;28;19979;-76
2024/03/23 12:48:49;;;;;;;;;;;8.20;99.90;;;;;;5075902;28;19916;-78
2024/03/23 12:51:15;;;;;;;;;;;8.70;99.90;;;;;;5037143;28;20322;-76
2024/03/23 12:53:40;;;;;;;;;;;9.00;99.90;;;;;;5003089;28;20289;-76
2024/03/23 12:56:06;;;;;;;;;;;9.30;99.90;;;;;;5043430;28;20392;-76
2024/03/23 12:58:32;;;;;;;;;;;8.90;99.90;;;;;;5037721;28;19917;-76
2024/03/23 13:01:01;;;;;;;;;;;8.60;99.90;;;;;;5033483;28;19933;-76
2024/03/23 13:03:26;;;;;;;;;;;8.40;99.90;;;;;;5055703;28;20250;-76
2024/03/23 13:05:53;;;;;;;;;;;8.30;99.90;;;;;;5062559;28;19916;-77
2024/03/23 13:08:19;;;;;;;;;;;8.10;99.90;;;;;;5053862;28;19939;-76
2024/03/23 13:10:44;;;;;;;;;;;8.10;99.90;;;;;;5057432;28;19942;-76
2024/03/23 13:13:10;;;;;;;;;;;8.00;99.90;;;;;;5052352;28;20061;-78
2024/03/23 13:15:36;;;;;;;;;;;7.90;99.90;;;;;;5015708;28;20230;-77
2024/03/23 13:18:01;;;;;;;;;;;7.70;99.90;;;;;;5075355;28;20603;-77
2024/03/23 13:20:27;;;;;;;;;;;7.40;99.90;;;;;;5023031;28;19913;-76
2024/03/23 13:22:53;;;;;;;;;;;7.30;99.90;;;;;;5014695;28;19924;-77
2024/03/23 13:25:19;;;;;;;;;;;7.20;99.90;;;;;;5050466;28;19917;-76
2024/03/23 13:27:44;;;;;;;;;;;7.10;99.90;;;;;;5027613;28;19928;-76
2024/03/23 13:30:10;;;;;;;;;;;7.20;99.90;;;;;;5047645;28;20640;-76
2024/03/23 13:32:36;;;;;;;;;;;7.20;99.90;;;;;;5039477;28;19913;-76
2024/03/23 13:35:01;;;;;;;;;;;7.20;99.90;;;;;;5037594;28;19923;-76
2024/03/23 13:37:27;;;;;;;;;;;7.30;99.90;;;;;;5028588;28;20269;-76
2024/03/23 13:39:53;;;;;;;;;;;7.30;99.90;;;;;;5027231;28;20030;-76
2024/03/23 13:42:20;;;;;;;;;;;7.20;99.90;;;;;;5038987;28;20012;-77
2024/03/23 13:44:46;;;;;;;;;;;7.20;99.90;;;;;;5058901;28;19957;-76
2024/03/23 13:47:11;;;;;;;;;;;7.20;99.90;;;;;;5055950;28;19949;-76
2024/03/23 13:49:37;;;;;;;;;;;7.20;99.90;;;;;;5060747;28;19913;-77
2024/03/23 13:52:03;;;;;;;;;;;7.20;99.90;;;;;;5057520;28;19913;-77
2024/03/23 13:54:28;;;;;;;;;;;7.20;99.90;;;;;;5052729;28;20012;-77
2024/03/23 13:56:54;;;;;;;;;;;7.10;99.90;;;;;;5016875;28;19917;-77
2024/03/23 13:59:21;;;;;;;;;;;7.20;99.90;;;;;;5046274;28;19917;-77
2024/03/23 14:01:46;;;;;;;;;;;7.20;99.90;;;;;;5031368;28;19917;-78
2024/03/23 14:04:12;;;;;;;;;;;7.20;99.90;;;;;;5024173;28;19981;-77
2024/03/23 14:06:38;;;;;;;;;;;7.30;99.90;;;;;;5045927;28;19913;-77
2024/03/23 14:09:05;;;;;;;;;;;7.40;99.90;;;;;;5049955;28;19968;-77
2024/03/23 14:11:31;;;;;;;;;;;7.70;99.90;;;;;;5079586;28;19948;-78
2024/03/23 14:13:56;;;;;;;;;;;7.90;99.90;;;;;;5038822;28;19913;-78
2024/03/23 14:16:22;;;;;;;;;;;8.30;99.90;;;;;;5058302;28;19981;-76
2024/03/23 14:18:49;;;;;;;;;;;8.70;99.90;;;;;;5044459;28;19917;-78
2024/03/23 14:21:14;;;;;;;;;;;9.10;99.90;;;;;;5085309;28;19913;-76
2024/03/23 14:23:43;;;;;;;;;;;9.40;99.90;;;;;;5050374;28;19924;-78
2024/03/23 14:26:09;;;;;;;;;;;9.60;99.90;;;;;;5051102;28;19939;-77